sensor_id;sensor_type;location;lat;lon;timestamp;P1;durP1;ratioP1;P2;durP2;ratioP2
14080;SDS011;7116;52.152;5.392;2023-02-23T00:00:51;44.20;;;24.27;;
14080;SDS011;7116;52.152;5.392;2023-02-23T00:03:17;43.03;;;22.93;;
14080;SDS011;7116;52.152;5.392;2023-02-23T00:05:42;45.20;;;24.63;;
14080;SDS011;7116;52.152;5.392;2023-02-23T00:08:07;48.67;;;25.43;;
14080;SDS011;7116;52.152;5.392;2023-02-23T00:10:33;40.57;;;24.23;;
14080;SDS011;7116;52.152;5.392;2023-02-23T00:12:58;42.77;;;23.33;;
14080;SDS011;7116;52.152;5.392;2023-02-23T00:15:24;47.55;;;25.77;;
14080;SDS011;7116;52.152;5.392;2023-02-23T00:17:51;47.95;;;25.02;;
14080;SDS011;7116;52.152;5.392;2023-02-23T00:20:16;47.23;;;25.43;;
14080;SDS011;7116;52.152;5.392;2023-02-23T00:22:49;42.97;;;25.27;;
14080;SDS011;7116;52.152;5.392;2023-02-23T00:25:16;47.95;;;26.58;;
14080;SDS011;7116;52.152;5.392;2023-02-23T00:27:42;49.25;;;25.77;;
14080;SDS011;7116;52.152;5.392;2023-02-23T00:30:13;42.92;;;24.83;;
14080;SDS011;7116;52.152;5.392;2023-02-23T00:32:38;50.40;;;25.63;;
14080;SDS011;7116;52.152;5.392;2023-02-23T00:35:04;45.80;;;25.70;;
14080;SDS011;7116;52.152;5.392;2023-02-23T00:37:33;49.75;;;26.23;;
14080;SDS011;7116;52.152;5.392;2023-02-23T00:39:59;44.10;;;24.05;;
14080;SDS011;7116;52.152;5.392;2023-02-23T00:42:24;50.47;;;24.67;;
14080;SDS011;7116;52.152;5.392;2023-02-23T00:44:53;42.03;;;23.13;;
14080;SDS011;7116;52.152;5.392;2023-02-23T00:47:18;48.40;;;26.93;;
14080;SDS011;7116;52.152;5.392;2023-02-23T00:49:44;46.07;;;25.03;;
14080;SDS011;7116;52.152;5.392;2023-02-23T00:52:11;48.33;;;26.98;;
14080;SDS011;7116;52.152;5.392;2023-02-23T00:54:38;41.10;;;23.83;;
14080;SDS011;7116;52.152;5.392;2023-02-23T00:57:04;49.80;;;27.20;;
14080;SDS011;7116;52.152;5.392;2023-02-23T00:59:29;46.47;;;26.70;;
14080;SDS011;7116;52.152;5.392;2023-02-23T01:01:54;48.10;;;26.60;;
14080;SDS011;7116;52.152;5.392;2023-02-23T01:04:19;50.00;;;26.63;;
14080;SDS011;7116;52.152;5.392;2023-02-23T01:06:44;43.43;;;24.40;;
14080;SDS011;7116;52.152;5.392;2023-02-23T01:09:11;48.87;;;27.57;;
14080;SDS011;7116;52.152;5.392;2023-02-23T01:11:37;49.13;;;25.38;;
14080;SDS011;7116;52.152;5.392;2023-02-23T01:14:05;49.30;;;27.17;;
14080;SDS011;7116;52.152;5.392;2023-02-23T01:16:31;47.30;;;25.60;;
14080;SDS011;7116;52.152;5.392;2023-02-23T01:18:58;46.58;;;26.55;;
14080;SDS011;7116;52.152;5.392;2023-02-23T01:21:25;49.40;;;27.30;;
14080;SDS011;7116;52.152;5.392;2023-02-23T01:23:52;45.35;;;25.33;;
14080;SDS011;7116;52.152;5.392;2023-02-23T01:26:18;52.03;;;28.07;;
14080;SDS011;7116;52.152;5.392;2023-02-23T01:28:50;51.90;;;27.02;;
14080;SDS011;7116;52.152;5.392;2023-02-23T01:31:16;51.47;;;26.20;;
14080;SDS011;7116;52.152;5.392;2023-02-23T01:33:41;54.07;;;29.20;;
14080;SDS011;7116;52.152;5.392;2023-02-23T01:36:07;51.40;;;27.80;;
14080;SDS011;7116;52.152;5.392;2023-02-23T01:38:32;50.07;;;26.57;;
14080;SDS011;7116;52.152;5.392;2023-02-23T01:40:57;53.23;;;27.93;;
14080;SDS011;7116;52.152;5.392;2023-02-23T01:43:22;50.13;;;27.90;;
14080;SDS011;7116;52.152;5.392;2023-02-23T01:45:54;48.50;;;27.63;;
14080;SDS011;7116;52.152;5.392;2023-02-23T01:48:20;51.33;;;27.65;;
14080;SDS011;7116;52.152;5.392;2023-02-23T01:53:12;48.47;;;26.77;;
14080;SDS011;7116;52.152;5.392;2023-02-23T01:55:37;46.23;;;26.87;;
14080;SDS011;7116;52.152;5.392;2023-02-23T01:58:04;47.67;;;27.15;;
14080;SDS011;7116;52.152;5.392;2023-02-23T02:00:30;51.33;;;27.80;;
14080;SDS011;7116;52.152;5.392;2023-02-23T02:03:00;49.78;;;27.00;;
14080;SDS011;7116;52.152;5.392;2023-02-23T02:05:26;53.92;;;27.17;;
14080;SDS011;7116;52.152;5.392;2023-02-23T02:07:52;46.33;;;26.92;;
14080;SDS011;7116;52.152;5.392;2023-02-23T02:10:23;49.60;;;28.27;;
14080;SDS011;7116;52.152;5.392;2023-02-23T02:13:04;50.13;;;27.07;;
14080;SDS011;7116;52.152;5.392;2023-02-23T02:15:31;48.65;;;25.80;;
14080;SDS011;7116;52.152;5.392;2023-02-23T02:23:15;50.57;;;27.50;;
14080;SDS011;7116;52.152;5.392;2023-02-23T02:33:05;51.55;;;26.98;;
14080;SDS011;7116;52.152;5.392;2023-02-23T02:41:03;50.30;;;26.03;;
14080;SDS011;7116;52.152;5.392;2023-02-23T02:43:47;48.75;;;26.48;;
14080;SDS011;7116;52.152;5.392;2023-02-23T02:51:30;51.28;;;26.08;;
14080;SDS011;7116;52.152;5.392;2023-02-23T02:56:21;48.33;;;26.77;;
14080;SDS011;7116;52.152;5.392;2023-02-23T02:58:47;49.50;;;27.45;;
14080;SDS011;7116;52.152;5.392;2023-02-23T03:01:14;55.55;;;27.88;;
14080;SDS011;7116;52.152;5.392;2023-02-23T03:04:16;50.40;;;28.73;;
14080;SDS011;7116;52.152;5.392;2023-02-23T03:07:03;49.33;;;28.40;;
14080;SDS011;7116;52.152;5.392;2023-02-23T03:09:52;49.63;;;27.27;;
14080;SDS011;7116;52.152;5.392;2023-02-23T03:12:40;50.00;;;28.10;;
14080;SDS011;7116;52.152;5.392;2023-02-23T03:15:51;51.13;;;26.67;;
14080;SDS011;7116;52.152;5.392;2023-02-23T03:21:24;45.05;;;25.52;;
14080;SDS011;7116;52.152;5.392;2023-02-23T03:24:26;49.33;;;26.25;;
14080;SDS011;7116;52.152;5.392;2023-02-23T03:27:34;51.85;;;27.98;;
14080;SDS011;7116;52.152;5.392;2023-02-23T03:30:20;50.15;;;30.20;;
14080;SDS011;7116;52.152;5.392;2023-02-23T03:33:07;57.55;;;28.13;;
14080;SDS011;7116;52.152;5.392;2023-02-23T03:35:56;47.78;;;25.30;;
14080;SDS011;7116;52.152;5.392;2023-02-23T03:38:48;50.63;;;26.60;;
14080;SDS011;7116;52.152;5.392;2023-02-23T03:41:36;47.05;;;25.70;;
14080;SDS011;7116;52.152;5.392;2023-02-23T03:44:21;47.05;;;25.20;;
14080;SDS011;7116;52.152;5.392;2023-02-23T03:47:07;52.47;;;27.05;;
14080;SDS011;7116;52.152;5.392;2023-02-23T03:49:52;48.25;;;25.73;;
14080;SDS011;7116;52.152;5.392;2023-02-23T03:52:48;47.72;;;25.65;;
14080;SDS011;7116;52.152;5.392;2023-02-23T03:55:34;50.70;;;27.17;;
14080;SDS011;7116;52.152;5.392;2023-02-23T03:58:21;48.67;;;25.52;;
14080;SDS011;7116;52.152;5.392;2023-02-23T04:01:06;50.63;;;26.55;;
14080;SDS011;7116;52.152;5.392;2023-02-23T04:03:51;51.65;;;28.02;;
14080;SDS011;7116;52.152;5.392;2023-02-23T04:06:37;47.00;;;26.23;;
14080;SDS011;7116;52.152;5.392;2023-02-23T04:09:22;50.20;;;27.10;;
14080;SDS011;7116;52.152;5.392;2023-02-23T04:15:05;49.03;;;26.42;;
14080;SDS011;7116;52.152;5.392;2023-02-23T04:17:32;46.22;;;26.02;;
14080;SDS011;7116;52.152;5.392;2023-02-23T04:19:57;45.00;;;24.55;;
14080;SDS011;7116;52.152;5.392;2023-02-23T04:22:22;45.80;;;23.27;;
14080;SDS011;7116;52.152;5.392;2023-02-23T04:24:48;49.47;;;25.93;;
14080;SDS011;7116;52.152;5.392;2023-02-23T04:27:14;48.92;;;26.25;;
14080;SDS011;7116;52.152;5.392;2023-02-23T04:29:39;48.43;;;25.33;;
14080;SDS011;7116;52.152;5.392;2023-02-23T04:32:05;51.43;;;26.53;;
14080;SDS011;7116;52.152;5.392;2023-02-23T04:34:30;48.70;;;25.43;;
14080;SDS011;7116;52.152;5.392;2023-02-23T04:36:55;45.97;;;25.70;;
14080;SDS011;7116;52.152;5.392;2023-02-23T04:39:20;48.05;;;25.60;;
14080;SDS011;7116;52.152;5.392;2023-02-23T04:41:46;50.00;;;26.27;;
14080;SDS011;7116;52.152;5.392;2023-02-23T04:44:14;52.97;;;27.00;;
14080;SDS011;7116;52.152;5.392;2023-02-23T04:46:39;50.92;;;26.17;;
14080;SDS011;7116;52.152;5.392;2023-02-23T04:49:04;51.40;;;26.90;;
14080;SDS011;7116;52.152;5.392;2023-02-23T04:51:30;54.10;;;27.50;;
14080;SDS011;7116;52.152;5.392;2023-02-23T04:53:57;52.20;;;25.23;;
14080;SDS011;7116;52.152;5.392;2023-02-23T04:56:22;48.37;;;24.97;;
14080;SDS011;7116;52.152;5.392;2023-02-23T04:58:47;48.50;;;25.80;;
14080;SDS011;7116;52.152;5.392;2023-02-23T05:01:13;51.63;;;27.20;;
14080;SDS011;7116;52.152;5.392;2023-02-23T05:03:38;51.03;;;27.33;;
14080;SDS011;7116;52.152;5.392;2023-02-23T05:06:03;51.10;;;26.13;;
14080;SDS011;7116;52.152;5.392;2023-02-23T05:08:29;47.33;;;26.20;;
14080;SDS011;7116;52.152;5.392;2023-02-23T05:10:54;46.83;;;25.05;;
14080;SDS011;7116;52.152;5.392;2023-02-23T05:13:20;40.70;;;22.90;;
14080;SDS011;7116;52.152;5.392;2023-02-23T05:15:45;44.28;;;23.05;;
14080;SDS011;7116;52.152;5.392;2023-02-23T05:18:10;49.57;;;26.80;;
14080;SDS011;7116;52.152;5.392;2023-02-23T05:20:36;48.73;;;26.37;;
14080;SDS011;7116;52.152;5.392;2023-02-23T05:23:01;51.27;;;25.80;;
14080;SDS011;7116;52.152;5.392;2023-02-23T05:25:26;48.90;;;26.17;;
14080;SDS011;7116;52.152;5.392;2023-02-23T05:27:51;49.53;;;24.57;;
14080;SDS011;7116;52.152;5.392;2023-02-23T05:30:16;46.23;;;24.67;;
14080;SDS011;7116;52.152;5.392;2023-02-23T05:32:41;49.93;;;23.80;;
14080;SDS011;7116;52.152;5.392;2023-02-23T05:35:07;47.53;;;25.27;;
14080;SDS011;7116;52.152;5.392;2023-02-23T05:37:32;50.10;;;24.93;;
14080;SDS011;7116;52.152;5.392;2023-02-23T05:39:58;50.40;;;26.77;;
14080;SDS011;7116;52.152;5.392;2023-02-23T05:42:23;49.13;;;24.80;;
14080;SDS011;7116;52.152;5.392;2023-02-23T05:44:49;48.63;;;26.23;;
14080;SDS011;7116;52.152;5.392;2023-02-23T05:47:14;50.73;;;25.97;;
14080;SDS011;7116;52.152;5.392;2023-02-23T05:49:39;48.13;;;24.80;;
14080;SDS011;7116;52.152;5.392;2023-02-23T05:52:04;48.63;;;26.60;;
14080;SDS011;7116;52.152;5.392;2023-02-23T05:54:29;51.97;;;24.67;;
14080;SDS011;7116;52.152;5.392;2023-02-23T05:56:55;50.53;;;26.30;;
14080;SDS011;7116;52.152;5.392;2023-02-23T05:59:20;50.80;;;26.10;;
14080;SDS011;7116;52.152;5.392;2023-02-23T06:01:46;48.27;;;26.67;;
14080;SDS011;7116;52.152;5.392;2023-02-23T06:04:11;51.20;;;27.27;;
14080;SDS011;7116;52.152;5.392;2023-02-23T06:06:36;48.17;;;24.70;;
14080;SDS011;7116;52.152;5.392;2023-02-23T06:09:02;50.50;;;26.07;;
14080;SDS011;7116;52.152;5.392;2023-02-23T06:11:27;52.05;;;26.83;;
14080;SDS011;7116;52.152;5.392;2023-02-23T06:13:53;47.83;;;23.37;;
14080;SDS011;7116;52.152;5.392;2023-02-23T06:16:18;46.77;;;25.27;;
14080;SDS011;7116;52.152;5.392;2023-02-23T06:18:43;44.80;;;22.60;;
14080;SDS011;7116;52.152;5.392;2023-02-23T06:21:08;47.53;;;23.60;;
14080;SDS011;7116;52.152;5.392;2023-02-23T06:23:33;42.00;;;23.63;;
14080;SDS011;7116;52.152;5.392;2023-02-23T06:25:59;44.70;;;22.23;;
14080;SDS011;7116;52.152;5.392;2023-02-23T06:28:25;46.80;;;23.30;;
14080;SDS011;7116;52.152;5.392;2023-02-23T06:30:53;45.13;;;23.30;;
14080;SDS011;7116;52.152;5.392;2023-02-23T06:33:19;47.90;;;25.87;;
14080;SDS011;7116;52.152;5.392;2023-02-23T06:35:44;43.93;;;23.33;;
14080;SDS011;7116;52.152;5.392;2023-02-23T06:38:10;46.10;;;24.92;;
14080;SDS011;7116;52.152;5.392;2023-02-23T06:40:36;45.20;;;24.57;;
14080;SDS011;7116;52.152;5.392;2023-02-23T06:43:01;43.72;;;23.83;;
14080;SDS011;7116;52.152;5.392;2023-02-23T06:45:27;48.75;;;25.00;;
14080;SDS011;7116;52.152;5.392;2023-02-23T06:47:53;44.17;;;24.50;;
14080;SDS011;7116;52.152;5.392;2023-02-23T06:50:18;48.00;;;25.07;;
14080;SDS011;7116;52.152;5.392;2023-02-23T06:52:43;49.07;;;24.60;;
14080;SDS011;7116;52.152;5.392;2023-02-23T06:55:09;44.85;;;24.98;;
14080;SDS011;7116;52.152;5.392;2023-02-23T06:57:34;46.60;;;23.27;;
14080;SDS011;7116;52.152;5.392;2023-02-23T06:59:59;44.60;;;23.63;;
14080;SDS011;7116;52.152;5.392;2023-02-23T07:02:30;45.42;;;24.92;;
14080;SDS011;7116;52.152;5.392;2023-02-23T07:04:57;43.58;;;23.13;;
14080;SDS011;7116;52.152;5.392;2023-02-23T07:07:22;48.80;;;23.47;;
14080;SDS011;7116;52.152;5.392;2023-02-23T07:09:48;43.77;;;23.37;;
14080;SDS011;7116;52.152;5.392;2023-02-23T07:12:13;50.77;;;25.07;;
14080;SDS011;7116;52.152;5.392;2023-02-23T07:14:38;45.47;;;24.80;;
14080;SDS011;7116;52.152;5.392;2023-02-23T07:17:03;52.07;;;26.30;;
14080;SDS011;7116;52.152;5.392;2023-02-23T07:19:29;43.50;;;24.00;;
14080;SDS011;7116;52.152;5.392;2023-02-23T07:21:54;48.97;;;23.42;;
14080;SDS011;7116;52.152;5.392;2023-02-23T07:24:20;48.40;;;24.52;;
14080;SDS011;7116;52.152;5.392;2023-02-23T07:26:45;43.77;;;24.37;;
14080;SDS011;7116;52.152;5.392;2023-02-23T07:29:12;49.53;;;23.17;;
14080;SDS011;7116;52.152;5.392;2023-02-23T07:31:38;44.60;;;23.77;;
14080;SDS011;7116;52.152;5.392;2023-02-23T07:34:03;50.67;;;25.33;;
14080;SDS011;7116;52.152;5.392;2023-02-23T07:36:28;49.07;;;25.30;;
14080;SDS011;7116;52.152;5.392;2023-02-23T07:38:53;47.20;;;24.53;;
14080;SDS011;7116;52.152;5.392;2023-02-23T07:41:19;46.30;;;24.73;;
14080;SDS011;7116;52.152;5.392;2023-02-23T07:43:44;44.87;;;22.83;;
14080;SDS011;7116;52.152;5.392;2023-02-23T07:46:10;46.77;;;24.73;;
14080;SDS011;7116;52.152;5.392;2023-02-23T07:48:35;49.73;;;26.07;;
14080;SDS011;7116;52.152;5.392;2023-02-23T07:51:00;47.60;;;24.03;;
14080;SDS011;7116;52.152;5.392;2023-02-23T07:53:25;42.43;;;22.87;;
14080;SDS011;7116;52.152;5.392;2023-02-23T07:55:58;44.75;;;24.38;;
14080;SDS011;7116;52.152;5.392;2023-02-23T07:58:24;46.97;;;25.40;;
14080;SDS011;7116;52.152;5.392;2023-02-23T08:00:49;43.37;;;22.73;;
14080;SDS011;7116;52.152;5.392;2023-02-23T08:03:15;45.20;;;22.33;;
14080;SDS011;7116;52.152;5.392;2023-02-23T08:05:40;44.60;;;22.03;;
14080;SDS011;7116;52.152;5.392;2023-02-23T08:08:05;46.60;;;23.33;;
14080;SDS011;7116;52.152;5.392;2023-02-23T08:10:30;44.17;;;23.30;;
14080;SDS011;7116;52.152;5.392;2023-02-23T08:12:56;43.73;;;23.57;;
14080;SDS011;7116;52.152;5.392;2023-02-23T08:15:21;47.22;;;24.65;;
14080;SDS011;7116;52.152;5.392;2023-02-23T08:17:47;45.80;;;24.40;;
14080;SDS011;7116;52.152;5.392;2023-02-23T08:20:12;48.50;;;22.97;;
14080;SDS011;7116;52.152;5.392;2023-02-23T08:22:37;51.17;;;23.50;;
14080;SDS011;7116;52.152;5.392;2023-02-23T08:25:02;50.60;;;26.10;;
14080;SDS011;7116;52.152;5.392;2023-02-23T08:27:31;48.70;;;25.13;;
14080;SDS011;7116;52.152;5.392;2023-02-23T08:29:57;43.90;;;24.05;;
14080;SDS011;7116;52.152;5.392;2023-02-23T08:32:24;47.10;;;24.83;;
14080;SDS011;7116;52.152;5.392;2023-02-23T08:34:49;41.63;;;22.37;;
14080;SDS011;7116;52.152;5.392;2023-02-23T08:37:15;44.17;;;23.90;;
14080;SDS011;7116;52.152;5.392;2023-02-23T08:39:40;44.67;;;22.93;;
14080;SDS011;7116;52.152;5.392;2023-02-23T08:42:05;43.10;;;22.73;;
14080;SDS011;7116;52.152;5.392;2023-02-23T08:44:30;47.03;;;23.27;;
14080;SDS011;7116;52.152;5.392;2023-02-23T08:46:56;47.47;;;23.23;;
14080;SDS011;7116;52.152;5.392;2023-02-23T08:49:22;42.90;;;23.10;;
14080;SDS011;7116;52.152;5.392;2023-02-23T08:51:48;45.33;;;23.90;;
14080;SDS011;7116;52.152;5.392;2023-02-23T08:54:13;46.00;;;21.77;;
14080;SDS011;7116;52.152;5.392;2023-02-23T08:56:40;43.40;;;22.57;;
14080;SDS011;7116;52.152;5.392;2023-02-23T08:59:05;41.08;;;22.05;;
14080;SDS011;7116;52.152;5.392;2023-02-23T09:01:31;42.93;;;21.17;;
14080;SDS011;7116;52.152;5.392;2023-02-23T09:03:56;41.57;;;21.77;;
14080;SDS011;7116;52.152;5.392;2023-02-23T09:06:22;43.07;;;21.73;;
14080;SDS011;7116;52.152;5.392;2023-02-23T09:08:49;40.92;;;22.48;;
14080;SDS011;7116;52.152;5.392;2023-02-23T09:11:14;45.80;;;20.83;;
14080;SDS011;7116;52.152;5.392;2023-02-23T09:13:39;39.87;;;20.43;;
14080;SDS011;7116;52.152;5.392;2023-02-23T09:16:05;40.53;;;19.70;;
14080;SDS011;7116;52.152;5.392;2023-02-23T09:18:31;37.28;;;20.42;;
14080;SDS011;7116;52.152;5.392;2023-02-23T09:20:57;40.07;;;20.70;;
14080;SDS011;7116;52.152;5.392;2023-02-23T09:23:22;39.07;;;20.00;;
14080;SDS011;7116;52.152;5.392;2023-02-23T09:25:52;38.58;;;18.73;;
14080;SDS011;7116;52.152;5.392;2023-02-23T09:28:17;38.20;;;19.03;;
14080;SDS011;7116;52.152;5.392;2023-02-23T09:30:43;34.90;;;17.55;;
14080;SDS011;7116;52.152;5.392;2023-02-23T09:33:09;37.47;;;17.97;;
14080;SDS011;7116;52.152;5.392;2023-02-23T09:35:35;38.50;;;18.38;;
14080;SDS011;7116;52.152;5.392;2023-02-23T09:38:01;33.45;;;17.30;;
14080;SDS011;7116;52.152;5.392;2023-02-23T09:40:44;33.60;;;16.40;;
14080;SDS011;7116;52.152;5.392;2023-02-23T09:43:11;32.35;;;15.85;;
14080;SDS011;7116;52.152;5.392;2023-02-23T09:45:40;33.60;;;16.10;;
14080;SDS011;7116;52.152;5.392;2023-02-23T09:48:08;36.95;;;17.13;;
14080;SDS011;7116;52.152;5.392;2023-02-23T09:50:34;31.38;;;15.63;;
14080;SDS011;7116;52.152;5.392;2023-02-23T09:53:44;37.20;;;15.68;;
14080;SDS011;7116;52.152;5.392;2023-02-23T09:55:50;35.75;;;16.55;;
14080;SDS011;7116;52.152;5.392;2023-02-23T09:58:20;32.15;;;16.67;;
14080;SDS011;7116;52.152;5.392;2023-02-23T10:00:48;30.67;;;15.02;;
14080;SDS011;7116;52.152;5.392;2023-02-23T10:03:20;34.10;;;15.82;;
14080;SDS011;7116;52.152;5.392;2023-02-23T10:05:52;34.30;;;16.63;;
14080;SDS011;7116;52.152;5.392;2023-02-23T10:13:18;29.30;;;14.43;;
14080;SDS011;7116;52.152;5.392;2023-02-23T10:15:50;35.28;;;17.17;;
14080;SDS011;7116;52.152;5.392;2023-02-23T10:20:58;29.70;;;14.27;;
14080;SDS011;7116;52.152;5.392;2023-02-23T10:23:26;36.42;;;16.58;;
14080;SDS011;7116;52.152;5.392;2023-02-23T10:25:53;31.48;;;16.48;;
14080;SDS011;7116;52.152;5.392;2023-02-23T10:28:21;31.48;;;16.00;;
14080;SDS011;7116;52.152;5.392;2023-02-23T10:30:47;27.43;;;14.93;;
14080;SDS011;7116;52.152;5.392;2023-02-23T10:33:20;25.40;;;13.65;;
14080;SDS011;7116;52.152;5.392;2023-02-23T10:35:46;27.70;;;14.75;;
14080;SDS011;7116;52.152;5.392;2023-02-23T10:38:15;28.70;;;13.45;;
14080;SDS011;7116;52.152;5.392;2023-02-23T10:40:41;26.65;;;13.93;;
14080;SDS011;7116;52.152;5.392;2023-02-23T10:43:08;28.00;;;13.53;;
14080;SDS011;7116;52.152;5.392;2023-02-23T10:45:38;27.90;;;14.18;;
14080;SDS011;7116;52.152;5.392;2023-02-23T10:48:10;27.17;;;12.85;;
14080;SDS011;7116;52.152;5.392;2023-02-23T10:50:37;21.52;;;12.07;;
14080;SDS011;7116;52.152;5.392;2023-02-23T10:53:11;23.37;;;12.20;;
14080;SDS011;7116;52.152;5.392;2023-02-23T10:55:40;25.73;;;12.50;;
14080;SDS011;7116;52.152;5.392;2023-02-23T10:58:10;23.42;;;11.07;;
14080;SDS011;7116;52.152;5.392;2023-02-23T11:00:48;25.50;;;12.70;;
14080;SDS011;7116;52.152;5.392;2023-02-23T11:03:20;22.70;;;11.53;;
14080;SDS011;7116;52.152;5.392;2023-02-23T11:05:47;26.00;;;12.90;;
14080;SDS011;7116;52.152;5.392;2023-02-23T11:13:27;26.95;;;13.13;;
14080;SDS011;7116;52.152;5.392;2023-02-23T11:16:05;25.37;;;13.03;;
14080;SDS011;7116;52.152;5.392;2023-02-23T11:18:31;29.05;;;12.32;;
14080;SDS011;7116;52.152;5.392;2023-02-23T11:20:57;24.88;;;12.30;;
14080;SDS011;7116;52.152;5.392;2023-02-23T11:23:26;21.90;;;12.27;;
14080;SDS011;7116;52.152;5.392;2023-02-23T11:25:56;22.92;;;11.15;;
14080;SDS011;7116;52.152;5.392;2023-02-23T11:30:54;24.37;;;11.33;;
14080;SDS011;7116;52.152;5.392;2023-02-23T11:33:25;23.23;;;12.00;;
14080;SDS011;7116;52.152;5.392;2023-02-23T11:35:59;23.77;;;11.80;;
14080;SDS011;7116;52.152;5.392;2023-02-23T11:38:26;19.33;;;10.05;;
14080;SDS011;7116;52.152;5.392;2023-02-23T11:40:59;19.38;;;10.07;;
14080;SDS011;7116;52.152;5.392;2023-02-23T11:43:24;22.20;;;10.82;;
14080;SDS011;7116;52.152;5.392;2023-02-23T11:45:49;19.63;;;9.30;;
14080;SDS011;7116;52.152;5.392;2023-02-23T11:48:24;18.67;;;10.47;;
14080;SDS011;7116;52.152;5.392;2023-02-23T11:50:51;22.27;;;11.63;;
14080;SDS011;7116;52.152;5.392;2023-02-23T11:53:18;20.08;;;11.18;;
14080;SDS011;7116;52.152;5.392;2023-02-23T11:55:45;21.33;;;9.88;;
14080;SDS011;7116;52.152;5.392;2023-02-23T12:00:39;21.67;;;11.70;;
14080;SDS011;7116;52.152;5.392;2023-02-23T12:03:04;19.80;;;10.33;;
14080;SDS011;7116;52.152;5.392;2023-02-23T12:05:31;22.65;;;12.10;;
14080;SDS011;7116;52.152;5.392;2023-02-23T12:08:04;22.92;;;11.80;;
14080;SDS011;7116;52.152;5.392;2023-02-23T12:10:38;22.88;;;11.30;;
14080;SDS011;7116;52.152;5.392;2023-02-23T12:13:15;19.57;;;11.03;;
14080;SDS011;7116;52.152;5.392;2023-02-23T12:21:12;25.02;;;12.02;;
14080;SDS011;7116;52.152;5.392;2023-02-23T12:23:38;25.55;;;13.05;;
14080;SDS011;7116;52.152;5.392;2023-02-23T12:26:13;21.20;;;12.23;;
14080;SDS011;7116;52.152;5.392;2023-02-23T12:34:18;22.45;;;11.00;;
14080;SDS011;7116;52.152;5.392;2023-02-23T12:36:49;22.20;;;11.95;;
14080;SDS011;7116;52.152;5.392;2023-02-23T12:39:34;20.43;;;11.37;;
14080;SDS011;7116;52.152;5.392;2023-02-23T12:44:34;20.00;;;10.53;;
14080;SDS011;7116;52.152;5.392;2023-02-23T12:47:03;22.42;;;11.82;;
14080;SDS011;7116;52.152;5.392;2023-02-23T12:54:21;23.03;;;12.27;;
14080;SDS011;7116;52.152;5.392;2023-02-23T13:01:59;26.05;;;11.75;;
14080;SDS011;7116;52.152;5.392;2023-02-23T13:07:09;23.63;;;12.05;;
14080;SDS011;7116;52.152;5.392;2023-02-23T13:19:51;21.88;;;10.68;;
14080;SDS011;7116;52.152;5.392;2023-02-23T13:24:47;19.13;;;10.52;;
14080;SDS011;7116;52.152;5.392;2023-02-23T13:27:22;19.37;;;10.87;;
14080;SDS011;7116;52.152;5.392;2023-02-23T13:29:49;19.48;;;10.57;;
14080;SDS011;7116;52.152;5.392;2023-02-23T13:32:23;20.55;;;10.23;;
14080;SDS011;7116;52.152;5.392;2023-02-23T13:34:59;17.80;;;9.82;;
14080;SDS011;7116;52.152;5.392;2023-02-23T13:42:47;16.30;;;9.43;;
14080;SDS011;7116;52.152;5.392;2023-02-23T13:45:30;20.63;;;10.38;;
14080;SDS011;7116;52.152;5.392;2023-02-23T13:50:43;21.23;;;9.90;;
14080;SDS011;7116;52.152;5.392;2023-02-23T13:56:16;18.73;;;9.68;;
14080;SDS011;7116;52.152;5.392;2023-02-23T13:58:53;24.88;;;10.13;;
14080;SDS011;7116;52.152;5.392;2023-02-23T14:01:23;18.40;;;8.90;;
14080;SDS011;7116;52.152;5.392;2023-02-23T14:03:54;17.60;;;9.57;;
14080;SDS011;7116;52.152;5.392;2023-02-23T14:06:21;15.65;;;8.70;;
14080;SDS011;7116;52.152;5.392;2023-02-23T14:08:51;15.30;;;8.48;;
14080;SDS011;7116;52.152;5.392;2023-02-23T14:11:28;18.80;;;9.55;;
14080;SDS011;7116;52.152;5.392;2023-02-23T14:13:58;19.15;;;8.90;;
14080;SDS011;7116;52.152;5.392;2023-02-23T14:16:24;17.60;;;8.07;;
14080;SDS011;7116;52.152;5.392;2023-02-23T14:19:05;17.87;;;9.27;;
14080;SDS011;7116;52.152;5.392;2023-02-23T14:21:41;20.58;;;9.65;;
14080;SDS011;7116;52.152;5.392;2023-02-23T14:24:23;21.52;;;10.60;;
14080;SDS011;7116;52.152;5.392;2023-02-23T14:29:39;21.75;;;10.25;;
14080;SDS011;7116;52.152;5.392;2023-02-23T14:34:50;18.02;;;9.68;;
14080;SDS011;7116;52.152;5.392;2023-02-23T14:37:23;21.08;;;11.20;;
14080;SDS011;7116;52.152;5.392;2023-02-23T14:39:54;22.30;;;10.10;;
14080;SDS011;7116;52.152;5.392;2023-02-23T14:42:24;24.90;;;11.25;;
14080;SDS011;7116;52.152;5.392;2023-02-23T14:44:51;23.63;;;11.40;;
14080;SDS011;7116;52.152;5.392;2023-02-23T14:47:20;23.90;;;11.77;;
14080;SDS011;7116;52.152;5.392;2023-02-23T14:49:47;28.30;;;12.63;;
14080;SDS011;7116;52.152;5.392;2023-02-23T14:52:13;29.85;;;12.90;;
14080;SDS011;7116;52.152;5.392;2023-02-23T14:54:43;25.50;;;12.63;;
14080;SDS011;7116;52.152;5.392;2023-02-23T14:57:22;29.30;;;14.03;;
14080;SDS011;7116;52.152;5.392;2023-02-23T14:59:58;28.17;;;13.30;;
14080;SDS011;7116;52.152;5.392;2023-02-23T15:02:24;30.03;;;12.57;;
14080;SDS011;7116;52.152;5.392;2023-02-23T15:04:50;28.85;;;13.98;;
14080;SDS011;7116;52.152;5.392;2023-02-23T15:07:19;34.83;;;15.03;;
14080;SDS011;7116;52.152;5.392;2023-02-23T15:09:50;46.65;;;17.67;;
14080;SDS011;7116;52.152;5.392;2023-02-23T15:12:19;35.65;;;15.70;;
14080;SDS011;7116;52.152;5.392;2023-02-23T15:14:46;28.58;;;11.13;;
14080;SDS011;7116;52.152;5.392;2023-02-23T15:17:18;22.52;;;10.20;;
14080;SDS011;7116;52.152;5.392;2023-02-23T15:19:44;19.37;;;7.90;;
14080;SDS011;7116;52.152;5.392;2023-02-23T15:22:13;17.27;;;6.80;;
14080;SDS011;7116;52.152;5.392;2023-02-23T15:24:46;14.82;;;5.53;;
14080;SDS011;7116;52.152;5.392;2023-02-23T15:27:19;15.50;;;7.18;;
14080;SDS011;7116;52.152;5.392;2023-02-23T15:29:46;12.40;;;5.18;;
14080;SDS011;7116;52.152;5.392;2023-02-23T15:32:12;14.03;;;5.70;;
14080;SDS011;7116;52.152;5.392;2023-02-23T15:34:41;19.07;;;5.30;;
14080;SDS011;7116;52.152;5.392;2023-02-23T15:37:10;18.03;;;5.10;;
14080;SDS011;7116;52.152;5.392;2023-02-23T15:39:37;23.98;;;5.53;;
14080;SDS011;7116;52.152;5.392;2023-02-23T15:42:04;20.15;;;6.30;;
14080;SDS011;7116;52.152;5.392;2023-02-23T15:44:30;25.52;;;5.40;;
14080;SDS011;7116;52.152;5.392;2023-02-23T15:47:00;34.13;;;8.80;;
14080;SDS011;7116;52.152;5.392;2023-02-23T15:49:28;20.30;;;6.30;;
14080;SDS011;7116;52.152;5.392;2023-02-23T15:52:01;19.08;;;5.50;;
14080;SDS011;7116;52.152;5.392;2023-02-23T15:54:33;20.08;;;4.88;;
14080;SDS011;7116;52.152;5.392;2023-02-23T15:57:05;15.10;;;5.03;;
14080;SDS011;7116;52.152;5.392;2023-02-23T15:59:35;22.98;;;5.28;;
14080;SDS011;7116;52.152;5.392;2023-02-23T16:02:01;22.03;;;5.40;;
14080;SDS011;7116;52.152;5.392;2023-02-23T16:04:36;17.60;;;4.63;;
14080;SDS011;7116;52.152;5.392;2023-02-23T16:07:14;18.90;;;5.43;;
14080;SDS011;7116;52.152;5.392;2023-02-23T16:09:46;19.05;;;5.90;;
14080;SDS011;7116;52.152;5.392;2023-02-23T16:12:12;22.90;;;5.70;;
14080;SDS011;7116;52.152;5.392;2023-02-23T16:14:48;23.02;;;5.25;;
14080;SDS011;7116;52.152;5.392;2023-02-23T16:17:19;20.77;;;5.68;;
14080;SDS011;7116;52.152;5.392;2023-02-23T16:19:45;15.52;;;4.85;;
14080;SDS011;7116;52.152;5.392;2023-02-23T16:22:23;21.77;;;5.83;;
14080;SDS011;7116;52.152;5.392;2023-02-23T16:24:53;17.83;;;4.68;;
14080;SDS011;7116;52.152;5.392;2023-02-23T16:27:20;18.25;;;4.63;;
14080;SDS011;7116;52.152;5.392;2023-02-23T16:29:47;16.27;;;4.40;;
14080;SDS011;7116;52.152;5.392;2023-02-23T16:32:20;25.67;;;5.22;;
14080;SDS011;7116;52.152;5.392;2023-02-23T16:34:50;24.98;;;5.80;;